createdAt,value
2023-05-04T00:10:28.008Z,11.46
2023-05-04T00:30:28.017Z,11.44
2023-05-04T03:30:27.409Z,11.28
2023-05-04T04:10:27.904Z,11.22
2023-05-04T04:30:27.898Z,11.19
2023-05-04T04:50:27.897Z,11.18
2023-05-04T05:10:27.344Z,11.15
2023-05-04T05:30:27.916Z,11.11
2023-05-04T05:50:27.870Z,11.09
2023-05-04T06:10:27.841Z,11.08
2023-05-04T06:30:27.901Z,11.04
2023-05-04T06:50:27.841Z,11
2023-05-04T07:10:27.840Z,10.98
2023-05-04T07:30:27.965Z,10.96
2023-05-04T07:50:27.654Z,10.92
2023-05-04T08:10:27.852Z,10.89
2023-05-04T08:30:27.840Z,10.88
2023-05-04T08:50:27.786Z,10.87
2023-05-04T09:10:29.585Z,10.84
2023-05-04T09:30:27.753Z,10.81
2023-05-04T09:50:27.836Z,10.79
2023-05-04T10:10:27.621Z,10.78
2023-05-04T10:30:27.787Z,10.78
2023-05-04T10:50:26.965Z,10.78
2023-05-04T11:10:27.680Z,10.78
2023-05-04T11:30:27.702Z,10.78
2023-05-04T11:50:27.678Z,10.78
2023-05-04T12:10:27.735Z,10.8
2023-05-04T12:30:27.634Z,10.84
2023-05-04T12:50:26.853Z,10.87
2023-05-04T13:10:27.607Z,10.88
2023-05-04T13:30:27.606Z,10.92
2023-05-04T13:50:27.448Z,10.98
2023-05-04T14:10:27.557Z,11.01
2023-05-04T14:30:27.564Z,11.08
2023-05-04T14:50:27.426Z,11.11
2023-05-04T15:10:27.507Z,11.18
2023-05-04T15:30:27.403Z,11.24
2023-05-04T15:50:27.494Z,11.29
2023-05-04T16:10:27.497Z,11.35
2023-05-04T16:30:27.459Z,11.42
2023-05-04T16:50:27.442Z,11.49
2023-05-04T17:10:27.521Z,11.56
2023-05-04T17:30:27.424Z,11.6
2023-05-04T17:50:26.862Z,11.67
2023-05-04T18:10:27.375Z,11.71
2023-05-04T18:30:27.353Z,11.79
2023-05-04T18:50:27.363Z,11.81
2023-05-04T19:10:26.574Z,11.88
2023-05-04T19:30:26.560Z,11.91
2023-05-04T19:50:27.315Z,11.96
2023-05-04T20:10:27.286Z,12
2023-05-04T20:30:27.299Z,12.02
2023-05-04T22:30:27.189Z,12.18
2023-05-04T23:10:27.163Z,12.2
2023-05-04T23:30:27.165Z,12.21
2023-05-04T23:50:27.155Z,12.21
